Time;durP1;ratioP1;P1;durP2;ratioP2;P2;SDS_P1;SDS_P2;PMS_P1;PMS_P2;Temp;Humidity;BMP_temperature;BMP_pressure;BME280_temperature;BME280_humidity;BME280_pressure;Samples;Min_cycle;Max_cycle;Signal;HPM_P1;HPM_P2
2023/10/19 00:00:21;;;;;;;11.60;9.93;;;;;;;;;;5123178;27;20047;-58
2023/10/19 00:02:51;;;;;;;15.13;10.73;;;;;;;;;;5123614;27;20059;-59
2023/10/19 00:05:18;;;;;;;12.52;11.10;;;;;;;;;;5103460;27;20056;-58
2023/10/19 00:07:44;;;;;;;14.73;12.80;;;;;;;;;;5122574;27;20055;-58
2023/10/19 00:10:15;;;;;;;14.82;12.32;;;;;;;;;;5122650;27;20210;-60
2023/10/19 00:12:41;;;;;;;16.58;12.48;;;;;;;;;;5111651;27;20048;-57
2023/10/19 00:15:09;;;;;;;13.38;11.10;;;;;;;;;;5120157;27;20437;-59
2023/10/19 00:17:38;;;;;;;14.38;11.93;;;;;;;;;;5102689;27;20052;-59
2023/10/19 00:20:35;;;;;;;14.65;12.07;;;;;;;;;;5126215;27;21039;-60
2023/10/19 00:23:05;;;;;;;14.27;11.48;;;;;;;;;;5106117;27;20102;-59
2023/10/19 00:25:34;;;;;;;15.45;13.02;;;;;;;;;;5112785;27;20054;-57
2023/10/19 00:28:04;;;;;;;17.88;13.20;;;;;;;;;;5116243;27;20055;-59
2023/10/19 00:30:32;;;;;;;17.88;13.93;;;;;;;;;;5102979;27;20055;-59
2023/10/19 00:33:03;;;;;;;17.98;14.32;;;;;;;;;;5101433;27;20049;-57
2023/10/19 00:35:42;;;;;;;19.55;15.00;;;;;;;;;;5115737;27;20133;-59
2023/10/19 00:38:27;;;;;;;18.60;14.35;;;;;;;;;;5121008;27;20182;-59
2023/10/19 00:40:58;;;;;;;18.10;13.70;;;;;;;;;;5122175;27;20695;-56
2023/10/19 00:43:36;;;;;;;19.27;13.68;;;;;;;;;;5122380;27;20148;-58
2023/10/19 00:46:06;;;;;;;20.45;14.82;;;;;;;;;;5102197;27;20105;-58
2023/10/19 00:48:34;;;;;;;23.67;16.45;;;;;;;;;;5108733;27;20139;-58
2023/10/19 00:51:08;;;;;;;20.23;15.57;;;;;;;;;;5113772;27;20055;-55
2023/10/19 00:53:36;;;;;;;20.50;15.00;;;;;;;;;;5122915;27;20098;-58
2023/10/19 00:56:06;;;;;;;18.73;14.80;;;;;;;;;;5123274;27;20059;-57
2023/10/19 00:58:35;;;;;;;23.45;16.65;;;;;;;;;;5118920;27;20490;-58
2023/10/19 01:01:05;;;;;;;19.35;15.02;;;;;;;;;;5127240;27;20130;-59
2023/10/19 01:03:36;;;;;;;18.90;15.27;;;;;;;;;;5132157;27;20540;-57
2023/10/19 01:06:13;;;;;;;19.30;15.07;;;;;;;;;;5122025;27;20056;-59
2023/10/19 01:08:42;;;;;;;21.98;17.05;;;;;;;;;;5105520;27;20048;-59
2023/10/19 01:11:11;;;;;;;22.98;17.40;;;;;;;;;;5125280;27;20541;-59
2023/10/19 01:13:38;;;;;;;19.63;15.73;;;;;;;;;;5125485;27;20108;-56
2023/10/19 01:16:04;;;;;;;21.50;16.80;;;;;;;;;;5122012;27;20052;-59
2023/10/19 01:18:32;;;;;;;23.60;17.05;;;;;;;;;;5124287;27;20105;-59
2023/10/19 01:21:04;;;;;;;24.23;17.60;;;;;;;;;;5126456;27;20048;-54
2023/10/19 01:23:31;;;;;;;24.45;18.00;;;;;;;;;;5119470;27;20474;-58
2023/10/19 01:28:55;;;;;;;24.55;19.30;;;;;;;;;;5125263;27;20051;-58
2023/10/19 01:33:55;;;;;;;26.98;18.73;;;;;;;;;;5117061;27;20095;-57
2023/10/19 01:38:53;;;;;;;23.40;16.98;;;;;;;;;;5124549;27;20110;-58
2023/10/19 01:41:19;;;;;;;26.92;19.58;;;;;;;;;;5125318;27;20048;-57
2023/10/19 01:43:48;;;;;;;29.67;19.92;;;;;;;;;;5125341;27;20837;-54
2023/10/19 01:46:21;;;;;;;31.95;20.95;;;;;;;;;;5125990;27;20555;-58
2023/10/19 01:48:58;;;;;;;28.83;20.35;;;;;;;;;;5124759;27;20117;-59
2023/10/19 01:51:26;;;;;;;28.73;20.65;;;;;;;;;;5125045;27;20054;-57
2023/10/19 01:53:55;;;;;;;32.33;21.42;;;;;;;;;;5124350;27;20056;-59
2023/10/19 01:56:22;;;;;;;28.27;19.73;;;;;;;;;;5126242;27;20124;-57
2023/10/19 01:58:51;;;;;;;30.63;21.15;;;;;;;;;;5124883;27;20171;-56
2023/10/19 02:03:58;;;;;;;29.30;20.73;;;;;;;;;;5124962;27;20639;-56
2023/10/19 02:06:29;;;;;;;31.92;21.35;;;;;;;;;;5124498;27;20596;-57
2023/10/19 02:09:00;;;;;;;31.77;21.27;;;;;;;;;;5125264;27;20131;-59
2023/10/19 02:11:28;;;;;;;31.70;21.20;;;;;;;;;;5105341;27;20059;-56
2023/10/19 02:13:59;;;;;;;30.77;21.23;;;;;;;;;;5104078;27;20052;-58
2023/10/19 02:16:29;;;;;;;30.52;20.15;;;;;;;;;;5122527;27;20514;-58
2023/10/19 02:18:56;;;;;;;29.45;21.55;;;;;;;;;;5123111;27;20086;-59
2023/10/19 02:21:22;;;;;;;30.50;22.05;;;;;;;;;;5108238;27;20568;-59
2023/10/19 02:23:51;;;;;;;28.98;20.90;;;;;;;;;;5124019;27;20083;-57
2023/10/19 02:26:19;;;;;;;32.45;20.92;;;;;;;;;;5114419;27;20514;-58
2023/10/19 02:28:47;;;;;;;35.03;22.02;;;;;;;;;;5105900;27;20755;-58
2023/10/19 02:31:19;;;;;;;35.72;23.00;;;;;;;;;;5123639;27;20060;-56
2023/10/19 02:33:46;;;;;;;37.05;23.70;;;;;;;;;;5122841;27;20060;-57
2023/10/19 02:36:15;;;;;;;40.30;23.70;;;;;;;;;;5123924;27;20564;-59
2023/10/19 02:38:48;;;;;;;36.30;23.20;;;;;;;;;;5119363;27;20055;-57
2023/10/19 02:41:15;;;;;;;38.05;22.88;;;;;;;;;;5122494;27;20061;-57
2023/10/19 02:43:45;;;;;;;39.33;23.88;;;;;;;;;;5104108;27;20067;-57
2023/10/19 02:46:13;;;;;;;34.90;21.98;;;;;;;;;;5121490;27;20062;-59
2023/10/19 02:48:44;;;;;;;39.80;23.00;;;;;;;;;;5123443;27;20051;-58
2023/10/19 02:51:11;;;;;;;40.10;23.50;;;;;;;;;;5118856;27;20635;-58
2023/10/19 02:53:39;;;;;;;35.78;22.80;;;;;;;;;;5110526;27;20051;-55
2023/10/19 02:56:16;;;;;;;39.65;22.63;;;;;;;;;;5124765;27;20051;-56
2023/10/19 02:58:43;;;;;;;36.58;22.17;;;;;;;;;;5123546;27;20121;-58
2023/10/19 03:01:17;;;;;;;34.67;22.30;;;;;;;;;;5113109;27;20055;-59
2023/10/19 03:03:43;;;;;;;33.78;21.23;;;;;;;;;;5119803;27;20517;-59
2023/10/19 03:06:11;;;;;;;37.65;21.75;;;;;;;;;;5103628;27;20052;-58
2023/10/19 03:08:37;;;;;;;32.63;20.95;;;;;;;;;;5121377;27;20571;-58
2023/10/19 03:11:04;;;;;;;32.85;20.10;;;;;;;;;;5123646;27;20055;-56
2023/10/19 03:13:33;;;;;;;37.00;22.42;;;;;;;;;;5122790;27;20052;-58
2023/10/19 03:16:07;;;;;;;33.05;20.80;;;;;;;;;;5122637;27;20105;-59
2023/10/19 03:18:34;;;;;;;34.60;20.17;;;;;;;;;;5111362;27;20949;-59
2023/10/19 03:21:02;;;;;;;43.10;21.33;;;;;;;;;;5123337;27;20501;-58
2023/10/19 03:23:28;;;;;;;37.63;21.45;;;;;;;;;;5113201;27;20500;-59
2023/10/19 03:26:18;;;;;;;32.42;20.83;;;;;;;;;;5103072;27;20146;-57
2023/10/19 03:28:45;;;;;;;38.25;22.00;;;;;;;;;;5119648;27;20059;-59
2023/10/19 03:31:18;;;;;;;38.90;21.02;;;;;;;;;;5120645;27;20520;-58
2023/10/19 03:33:48;;;;;;;34.40;20.67;;;;;;;;;;5107145;27;20521;-57
2023/10/19 03:36:14;;;;;;;38.05;20.83;;;;;;;;;;5122734;27;20500;-58
2023/10/19 03:38:41;;;;;;;43.53;21.60;;;;;;;;;;5122581;27;20083;-59
2023/10/19 03:41:08;;;;;;;37.88;21.15;;;;;;;;;;5124716;27;20155;-55
2023/10/19 03:43:40;;;;;;;30.98;19.52;;;;;;;;;;5123609;27;20044;-59
2023/10/19 03:46:22;;;;;;;33.45;19.52;;;;;;;;;;5123702;27;20280;-58
2023/10/19 03:48:48;;;;;;;37.50;21.30;;;;;;;;;;5116646;27;20055;-59
2023/10/19 03:51:15;;;;;;;38.90;21.73;;;;;;;;;;5136508;27;20525;-59
2023/10/19 03:53:48;;;;;;;36.35;20.45;;;;;;;;;;5106728;27;20551;-58
2023/10/19 03:56:17;;;;;;;39.47;20.52;;;;;;;;;;5123071;27;20517;-58
2023/10/19 03:58:47;;;;;;;37.85;20.60;;;;;;;;;;5109583;27;20052;-60
2023/10/19 04:01:16;;;;;;;36.38;19.75;;;;;;;;;;5102752;27;20502;-59
2023/10/19 04:03:43;;;;;;;36.90;19.70;;;;;;;;;;5105196;27;20892;-58
2023/10/19 04:06:14;;;;;;;40.90;21.33;;;;;;;;;;5123864;27;20051;-58
2023/10/19 04:08:42;;;;;;;39.88;19.48;;;;;;;;;;5106148;27;20063;-56
2023/10/19 04:11:18;;;;;;;34.95;18.58;;;;;;;;;;5119925;27;20058;-59
2023/10/19 04:13:45;;;;;;;31.83;18.58;;;;;;;;;;5122707;27;20062;-58
2023/10/19 04:16:12;;;;;;;38.08;18.95;;;;;;;;;;5123178;27;20051;-59
2023/10/19 04:18:43;;;;;;;34.67;18.35;;;;;;;;;;5101470;27;20494;-58
2023/10/19 04:21:10;;;;;;;32.17;18.35;;;;;;;;;;5104132;27;20098;-57
2023/10/19 04:23:36;;;;;;;33.53;16.60;;;;;;;;;;5123007;27;20091;-58
2023/10/19 04:26:13;;;;;;;36.20;17.45;;;;;;;;;;5122524;27;20056;-57
2023/10/19 04:28:49;;;;;;;32.35;16.10;;;;;;;;;;5121892;27;20051;-57
2023/10/19 04:31:17;;;;;;;27.33;14.48;;;;;;;;;;5118256;27;20101;-57
2023/10/19 04:33:45;;;;;;;27.27;14.77;;;;;;;;;;5124948;27;20403;-59
2023/10/19 04:36:14;;;;;;;24.42;13.80;;;;;;;;;;5125820;27;20047;-57
2023/10/19 04:38:41;;;;;;;24.17;13.93;;;;;;;;;;5125861;27;20429;-59
2023/10/19 04:41:08;;;;;;;26.02;13.27;;;;;;;;;;5125517;27;20059;-57
2023/10/19 04:43:36;;;;;;;21.23;12.38;;;;;;;;;;5125770;27;20050;-58
2023/10/19 04:46:07;;;;;;;23.30;12.90;;;;;;;;;;5115992;27;20095;-58
2023/10/19 04:48:35;;;;;;;21.35;12.27;;;;;;;;;;5103795;27;20064;-59
2023/10/19 04:51:03;;;;;;;22.48;11.57;;;;;;;;;;5126789;27;20588;-57
2023/10/19 04:53:31;;;;;;;21.65;11.25;;;;;;;;;;5121291;27;20618;-57
2023/10/19 04:55:57;;;;;;;20.83;11.00;;;;;;;;;;5112725;27;20048;-59
2023/10/19 04:58:24;;;;;;;23.70;11.43;;;;;;;;;;5107433;27;20131;-57
2023/10/19 05:00:50;;;;;;;16.83;9.55;;;;;;;;;;5107821;27;20055;-59
2023/10/19 05:03:18;;;;;;;15.82;9.13;;;;;;;;;;5106382;27;20055;-59
2023/10/19 05:05:45;;;;;;;14.63;8.07;;;;;;;;;;5119015;27;20138;-59
2023/10/19 05:08:11;;;;;;;13.90;7.95;;;;;;;;;;5123057;27;20079;-56
2023/10/19 05:10:38;;;;;;;12.55;7.97;;;;;;;;;;5133649;27;20178;-56
2023/10/19 05:13:04;;;;;;;13.27;7.30;;;;;;;;;;5126955;27;20142;-59
2023/10/19 05:15:31;;;;;;;12.13;6.38;;;;;;;;;;5130077;27;20097;-58
2023/10/19 05:17:57;;;;;;;17.45;6.97;;;;;;;;;;5134048;27;20054;-59
2023/10/19 05:20:23;;;;;;;19.70;6.88;;;;;;;;;;5125780;27;20051;-58
2023/10/19 05:22:50;;;;;;;11.13;5.55;;;;;;;;;;5126440;27;20106;-58
2023/10/19 05:25:16;;;;;;;11.70;5.38;;;;;;;;;;5126075;27;20051;-59
2023/10/19 05:27:45;;;;;;;8.38;5.28;;;;;;;;;;5112807;27;20504;-59
2023/10/19 05:30:12;;;;;;;6.60;4.60;;;;;;;;;;5115891;27;20060;-57
2023/10/19 05:32:38;;;;;;;12.23;4.60;;;;;;;;;;5124339;27;20132;-56
2023/10/19 05:35:05;;;;;;;9.75;4.35;;;;;;;;;;5106660;27;20064;-59
2023/10/19 05:37:32;;;;;;;12.55;4.25;;;;;;;;;;5114571;27;20497;-59
2023/10/19 05:39:58;;;;;;;8.63;4.25;;;;;;;;;;5114860;27;20052;-58
2023/10/19 05:42:25;;;;;;;10.88;3.90;;;;;;;;;;5104258;27;20044;-57
2023/10/19 05:44:52;;;;;;;7.68;3.70;;;;;;;;;;5106132;27;20048;-58
2023/10/19 05:47:19;;;;;;;6.38;3.35;;;;;;;;;;5121931;27;20128;-57
2023/10/19 05:49:45;;;;;;;9.57;3.63;;;;;;;;;;5107240;27;20097;-58
2023/10/19 05:52:12;;;;;;;7.20;3.50;;;;;;;;;;5114160;27;20595;-59
2023/10/19 05:54:38;;;;;;;8.68;3.65;;;;;;;;;;5125811;27;20838;-59
2023/10/19 05:57:08;;;;;;;9.20;3.60;;;;;;;;;;5116710;27;20566;-57
2023/10/19 05:59:34;;;;;;;8.45;3.28;;;;;;;;;;5123617;27;20055;-57
2023/10/19 06:02:01;;;;;;;8.48;3.03;;;;;;;;;;5123331;27;20146;-57
2023/10/19 06:04:27;;;;;;;9.68;3.70;;;;;;;;;;5124218;27;20056;-57
2023/10/19 06:06:54;;;;;;;4.93;2.90;;;;;;;;;;5124918;27;20059;-58
2023/10/19 06:09:20;;;;;;;9.05;3.20;;;;;;;;;;5123956;27;20593;-57
2023/10/19 06:11:47;;;;;;;7.32;2.95;;;;;;;;;;5123259;27;20056;-59
2023/10/19 06:14:13;;;;;;;9.88;3.33;;;;;;;;;;5123000;27;20177;-59
2023/10/19 06:16:41;;;;;;;5.88;3.03;;;;;;;;;;5121394;27;20071;-58
2023/10/19 06:19:08;;;;;;;6.32;2.85;;;;;;;;;;5107061;27;20539;-57
2023/10/19 06:21:35;;;;;;;8.77;2.90;;;;;;;;;;5117079;27;20088;-57
2023/10/19 06:24:02;;;;;;;5.07;2.95;;;;;;;;;;5118095;27;20089;-54
2023/10/19 06:26:29;;;;;;;9.50;2.60;;;;;;;;;;5108177;27;20059;-57
2023/10/19 06:28:59;;;;;;;6.55;3.25;;;;;;;;;;5117354;27;20056;-58
2023/10/19 06:31:26;;;;;;;6.47;3.00;;;;;;;;;;5117145;27;20047;-59
2023/10/19 06:33:53;;;;;;;7.75;2.88;;;;;;;;;;5116384;27;20075;-59
2023/10/19 06:36:19;;;;;;;7.25;2.75;;;;;;;;;;5119630;27;20056;-55
2023/10/19 06:38:46;;;;;;;9.90;3.03;;;;;;;;;;5126807;27;20059;-59
2023/10/19 06:41:13;;;;;;;4.35;2.78;;;;;;;;;;5126967;27;20509;-60
2023/10/19 06:43:40;;;;;;;9.23;3.97;;;;;;;;;;5122536;27;20470;-58
2023/10/19 06:46:07;;;;;;;5.57;3.20;;;;;;;;;;5120581;27;20056;-59
2023/10/19 06:48:35;;;;;;;10.35;3.22;;;;;;;;;;5106049;27;20048;-58
2023/10/19 06:51:01;;;;;;;7.07;3.15;;;;;;;;;;5122174;27;20055;-60
2023/10/19 06:53:28;;;;;;;11.30;3.53;;;;;;;;;;5122288;27;20104;-56
2023/10/19 06:55:54;;;;;;;5.65;3.05;;;;;;;;;;5117538;27;20048;-57
2023/10/19 06:58:21;;;;;;;10.38;3.10;;;;;;;;;;5121354;27;20055;-57
2023/10/19 07:00:56;;;;;;;10.80;3.70;;;;;;;;;;5121762;27;20058;-58
2023/10/19 07:03:23;;;;;;;9.35;4.05;;;;;;;;;;5123714;27;20040;-59
2023/10/19 07:05:51;;;;;;;8.23;3.70;;;;;;;;;;5130078;27;20055;-58
2023/10/19 07:08:18;;;;;;;6.72;3.78;;;;;;;;;;5112165;27;21188;-60
2023/10/19 07:10:45;;;;;;;9.27;3.97;;;;;;;;;;5123081;27;20077;-58
2023/10/19 07:13:12;;;;;;;8.48;3.90;;;;;;;;;;5120844;27;20208;-60
2023/10/19 07:15:41;;;;;;;11.60;4.85;;;;;;;;;;5122865;27;20052;-59
2023/10/19 07:18:07;;;;;;;8.70;4.13;;;;;;;;;;5116534;27;20056;-57
2023/10/19 07:20:38;;;;;;;9.15;4.32;;;;;;;;;;5102742;27;20056;-58
2023/10/19 07:23:18;;;;;;;9.45;4.85;;;;;;;;;;5123356;27;20719;-60
2023/10/19 07:25:47;;;;;;;19.25;4.57;;;;;;;;;;5124444;27;20605;-58
2023/10/19 07:28:15;;;;;;;15.88;4.38;;;;;;;;;;5117709;27;20054;-58
2023/10/19 07:30:42;;;;;;;15.13;5.20;;;;;;;;;;5104014;27;20062;-59
2023/10/19 07:33:09;;;;;;;11.18;4.45;;;;;;;;;;5119984;27;20048;-59
2023/10/19 07:35:38;;;;;;;12.88;4.68;;;;;;;;;;5122848;27;20529;-59
2023/10/19 07:38:07;;;;;;;11.88;4.50;;;;;;;;;;5109337;27;20491;-59
2023/10/19 07:40:34;;;;;;;11.45;4.18;;;;;;;;;;5109638;27;20452;-59
2023/10/19 07:43:01;;;;;;;9.07;3.88;;;;;;;;;;5122146;27;20052;-59
2023/10/19 07:45:27;;;;;;;14.75;5.22;;;;;;;;;;5122823;27;20325;-58
2023/10/19 07:47:54;;;;;;;11.07;4.07;;;;;;;;;;5120930;27;20059;-57
2023/10/19 07:50:22;;;;;;;10.95;5.18;;;;;;;;;;5107270;27;20548;-59
2023/10/19 07:52:50;;;;;;;13.27;4.82;;;;;;;;;;5108956;27;20051;-52
2023/10/19 07:55:17;;;;;;;10.75;4.28;;;;;;;;;;5119384;27;20055;-59
2023/10/19 07:57:44;;;;;;;8.75;4.38;;;;;;;;;;5112921;27;20056;-60
2023/10/19 08:00:13;;;;;;;10.25;4.22;;;;;;;;;;5109022;27;20079;-58
2023/10/19 08:02:45;;;;;;;13.38;4.43;;;;;;;;;;5110146;27;20060;-59
2023/10/19 08:05:12;;;;;;;14.13;4.43;;;;;;;;;;5122350;27;20407;-59
2023/10/19 08:07:39;;;;;;;8.48;3.70;;;;;;;;;;5121488;27;20090;-57
2023/10/19 08:10:09;;;;;;;11.68;3.85;;;;;;;;;;5115513;27;20105;-59
2023/10/19 08:12:36;;;;;;;8.95;3.72;;;;;;;;;;5121784;27;20499;-59
2023/10/19 08:15:03;;;;;;;11.43;4.07;;;;;;;;;;5122234;27;20064;-60
2023/10/19 08:17:30;;;;;;;5.60;3.58;;;;;;;;;;5122084;27;20168;-58
2023/10/19 08:19:57;;;;;;;8.93;3.60;;;;;;;;;;5111371;27;20117;-57
2023/10/19 08:22:23;;;;;;;10.38;3.97;;;;;;;;;;5112432;27;20429;-57
2023/10/19 08:24:51;;;;;;;10.65;3.90;;;;;;;;;;5116391;27;20052;-58
2023/10/19 08:27:18;;;;;;;8.93;3.95;;;;;;;;;;5120516;27;20598;-59
2023/10/19 08:29:44;;;;;;;10.13;3.63;;;;;;;;;;5113227;27;20526;-59
2023/10/19 08:32:11;;;;;;;10.55;3.80;;;;;;;;;;5115002;27;20147;-58
2023/10/19 08:34:38;;;;;;;12.02;4.90;;;;;;;;;;5121708;27;20079;-59
2023/10/19 08:37:05;;;;;;;8.32;3.58;;;;;;;;;;5122159;27;20506;-59
2023/10/19 08:39:38;;;;;;;10.98;4.32;;;;;;;;;;5115582;27;20129;-59
2023/10/19 08:42:04;;;;;;;13.25;4.85;;;;;;;;;;5118611;27;20055;-58
2023/10/19 08:44:31;;;;;;;14.88;4.70;;;;;;;;;;5111790;27;20527;-56
2023/10/19 08:46:59;;;;;;;14.80;4.68;;;;;;;;;;5101200;27;20056;-58
2023/10/19 08:49:26;;;;;;;10.73;4.00;;;;;;;;;;5101790;27;20052;-58
2023/10/19 08:51:53;;;;;;;8.93;5.20;;;;;;;;;;5121341;27;20051;-59
2023/10/19 08:54:20;;;;;;;13.63;5.38;;;;;;;;;;5132868;27;20055;-59
2023/10/19 08:56:49;;;;;;;10.75;5.15;;;;;;;;;;5121089;27;20815;-60
2023/10/19 08:59:16;;;;;;;11.50;5.13;;;;;;;;;;5118433;27;20134;-58
2023/10/19 09:01:43;;;;;;;12.50;5.10;;;;;;;;;;5121536;27;20403;-59
2023/10/19 09:04:10;;;;;;;12.32;4.97;;;;;;;;;;5132612;27;20675;-60
2023/10/19 09:06:44;;;;;;;14.23;5.38;;;;;;;;;;5129176;27;20101;-57
2023/10/19 09:09:19;;;;;;;10.52;4.30;;;;;;;;;;5119176;27;20059;-59
2023/10/19 09:11:46;;;;;;;10.98;4.75;;;;;;;;;;5122457;27;20052;-59
2023/10/19 09:14:13;;;;;;;9.85;4.57;;;;;;;;;;5121367;27;20059;-60
2023/10/19 09:16:57;;;;;;;11.27;5.47;;;;;;;;;;5121191;27;20059;-58
2023/10/19 09:19:36;;;;;;;15.10;5.50;;;;;;;;;;5124199;27;20102;-59
2023/10/19 09:22:18;;;;;;;11.32;4.43;;;;;;;;;;5129291;27;20055;-58
2023/10/19 09:24:45;;;;;;;10.50;4.60;;;;;;;;;;5131677;27;20508;-59
2023/10/19 09:27:13;;;;;;;11.30;4.28;;;;;;;;;;5125536;27;20075;-59
2023/10/19 09:29:40;;;;;;;14.13;5.28;;;;;;;;;;5124537;27;20128;-59
2023/10/19 09:32:07;;;;;;;9.65;5.10;;;;;;;;;;5124903;27;20079;-60
2023/10/19 09:34:35;;;;;;;12.65;4.90;;;;;;;;;;5124388;27;20599;-59
2023/10/19 09:37:04;;;;;;;12.38;4.60;;;;;;;;;;5126013;27;20056;-60
2023/10/19 09:39:34;;;;;;;13.57;5.10;;;;;;;;;;5105176;27;20137;-59
2023/10/19 09:42:10;;;;;;;9.07;4.10;;;;;;;;;;5124904;27;20221;-58
2023/10/19 09:44:54;;;;;;;12.13;4.75;;;;;;;;;;5116181;27;20056;-60
2023/10/19 09:47:26;;;;;;;13.15;4.97;;;;;;;;;;5114122;27;20450;-59
2023/10/19 09:49:53;;;;;;;10.40;4.70;;;;;;;;;;5121637;27;20047;-58
2023/10/19 09:52:20;;;;;;;15.00;5.35;;;;;;;;;;5123905;27;20505;-60
2023/10/19 09:55:05;;;;;;;11.98;4.30;;;;;;;;;;5111729;27;20552;-60
2023/10/19 09:57:36;;;;;;;12.90;4.00;;;;;;;;;;5112815;27;20071;-59
2023/10/19 10:00:09;;;;;;;11.70;3.92;;;;;;;;;;5122740;27;20506;-60
2023/10/19 10:02:35;;;;;;;18.65;4.00;;;;;;;;;;5122388;27;20063;-58
2023/10/19 10:05:04;;;;;;;11.45;4.20;;;;;;;;;;5124489;27;20066;-59
2023/10/19 10:07:31;;;;;;;11.88;3.75;;;;;;;;;;5123997;27;20117;-60
2023/10/19 10:10:07;;;;;;;10.82;3.33;;;;;;;;;;5132644;27;20059;-55
2023/10/19 10:12:34;;;;;;;8.23;3.78;;;;;;;;;;5125458;27;20059;-60
2023/10/19 10:15:02;;;;;;;9.90;4.25;;;;;;;;;;5107365;27;20518;-58
2023/10/19 10:17:29;;;;;;;11.65;3.67;;;;;;;;;;5108891;27;20051;-60
2023/10/19 10:20:19;;;;;;;11.25;3.60;;;;;;;;;;5124539;27;20056;-59
2023/10/19 10:23:05;;;;;;;8.43;4.03;;;;;;;;;;5123761;27;20058;-60
2023/10/19 10:25:34;;;;;;;19.08;5.10;;;;;;;;;;5123463;27;20170;-59
2023/10/19 10:28:02;;;;;;;16.92;4.70;;;;;;;;;;5124472;27;20055;-59
2023/10/19 10:30:29;;;;;;;15.35;4.95;;;;;;;;;;5120946;27;20528;-59
2023/10/19 10:32:56;;;;;;;14.35;5.28;;;;;;;;;;5122679;27;20052;-59
2023/10/19 10:35:41;;;;;;;11.73;5.28;;;;;;;;;;5115705;27;20056;-59
2023/10/19 10:38:14;;;;;;;13.77;4.50;;;;;;;;;;5103393;27;20135;-58
2023/10/19 10:40:48;;;;;;;13.90;5.85;;;;;;;;;;5103943;27;20631;-58
2023/10/19 10:43:16;;;;;;;12.30;3.90;;;;;;;;;;5125016;27;20060;-59
2023/10/19 10:45:43;;;;;;;12.93;4.78;;;;;;;;;;5122710;27;20059;-59
2023/10/19 10:48:13;;;;;;;9.57;4.57;;;;;;;;;;5132567;27;20047;-59
2023/10/19 10:50:41;;;;;;;12.27;5.50;;;;;;;;;;5111133;27;20056;-58
2023/10/19 10:53:08;;;;;;;10.88;4.65;;;;;;;;;;5104089;27;20052;-59
2023/10/19 10:55:35;;;;;;;17.13;5.13;;;;;;;;;;5120203;27;20059;-59
2023/10/19 10:58:01;;;;;;;12.77;4.80;;;;;;;;;;5119780;27;20101;-58
2023/10/19 11:00:28;;;;;;;16.50;4.55;;;;;;;;;;5112832;27;20454;-57
2023/10/19 11:03:04;;;;;;;12.98;4.13;;;;;;;;;;5103396;27;20060;-58
2023/10/19 11:05:35;;;;;;;11.68;4.40;;;;;;;;;;5123399;27;20504;-59
2023/10/19 11:08:02;;;;;;;19.67;5.45;;;;;;;;;;5108550;27;20060;-59
2023/10/19 11:10:29;;;;;;;12.30;4.90;;;;;;;;;;5102105;27;20136;-59
2023/10/19 11:13:06;;;;;;;14.50;4.90;;;;;;;;;;5105473;27;20055;-60
2023/10/19 11:15:33;;;;;;;15.13;4.15;;;;;;;;;;5123496;27;20055;-59
2023/10/19 11:18:00;;;;;;;11.40;3.95;;;;;;;;;;5122202;27;20052;-59
2023/10/19 11:20:29;;;;;;;13.25;4.78;;;;;;;;;;5109736;27;20516;-58
2023/10/19 11:22:56;;;;;;;10.95;4.07;;;;;;;;;;5109483;27;20138;-59
2023/10/19 11:25:24;;;;;;;14.65;4.65;;;;;;;;;;5123214;27;20842;-58
2023/10/19 11:27:50;;;;;;;7.88;3.42;;;;;;;;;;5123802;27;20505;-59
2023/10/19 11:30:31;;;;;;;11.88;3.55;;;;;;;;;;5108308;27;20059;-60
2023/10/19 11:32:59;;;;;;;12.18;3.55;;;;;;;;;;5102800;27;20217;-59
2023/10/19 11:35:27;;;;;;;10.95;3.67;;;;;;;;;;5117517;27;20052;-59
2023/10/19 11:37:54;;;;;;;13.20;4.85;;;;;;;;;;5123616;27;20055;-59
2023/10/19 11:40:22;;;;;;;18.00;3.90;;;;;;;;;;5102335;27;20059;-59
2023/10/19 11:42:50;;;;;;;12.05;4.22;;;;;;;;;;5108926;27;20583;-57
2023/10/19 11:45:17;;;;;;;8.55;3.72;;;;;;;;;;5114548;27;20613;-60
2023/10/19 11:47:44;;;;;;;13.18;4.07;;;;;;;;;;5103733;27;20056;-59
2023/10/19 11:50:14;;;;;;;9.68;3.78;;;;;;;;;;5124013;27;20127;-60
2023/10/19 11:52:45;;;;;;;14.57;3.67;;;;;;;;;;5106112;27;20168;-59
2023/10/19 11:55:15;;;;;;;17.00;3.55;;;;;;;;;;5102528;27;20052;-60
2023/10/19 11:57:44;;;;;;;7.57;2.63;;;;;;;;;;5109296;27;20450;-58
2023/10/19 12:00:13;;;;;;;8.80;2.67;;;;;;;;;;5123389;27;20809;-59
2023/10/19 12:02:43;;;;;;;13.05;3.22;;;;;;;;;;5115252;27;20060;-60
2023/10/19 12:05:10;;;;;;;8.10;3.17;;;;;;;;;;5121936;27;20176;-59
2023/10/19 12:07:37;;;;;;;9.80;2.78;;;;;;;;;;5121003;27;20051;-59
2023/10/19 12:10:07;;;;;;;10.27;3.13;;;;;;;;;;5118071;27;20048;-60
2023/10/19 12:12:34;;;;;;;9.68;2.90;;;;;;;;;;5123200;27;20062;-59
2023/10/19 12:15:15;;;;;;;18.05;3.38;;;;;;;;;;5122443;27;20128;-59
2023/10/19 12:17:41;;;;;;;7.05;2.13;;;;;;;;;;5117933;27;20105;-59
2023/10/19 12:20:08;;;;;;;12.38;2.88;;;;;;;;;;5121666;27;20051;-57
2023/10/19 12:22:38;;;;;;;11.80;2.80;;;;;;;;;;5121877;27;20564;-58
2023/10/19 12:25:05;;;;;;;12.20;2.92;;;;;;;;;;5123445;27;20126;-60
2023/10/19 12:27:32;;;;;;;7.53;2.72;;;;;;;;;;5129430;27;20158;-59
2023/10/19 12:29:58;;;;;;;13.25;3.53;;;;;;;;;;5123572;27;20409;-59
2023/10/19 12:32:26;;;;;;;11.50;3.15;;;;;;;;;;5119760;27;20102;-59
2023/10/19 12:34:57;;;;;;;10.23;2.92;;;;;;;;;;5122648;27;20069;-60
2023/10/19 12:37:27;;;;;;;8.52;3.03;;;;;;;;;;5122739;27;20055;-59
2023/10/19 12:39:55;;;;;;;11.35;2.70;;;;;;;;;;5121956;27;20059;-59
2023/10/19 12:42:23;;;;;;;13.82;3.10;;;;;;;;;;5115731;27;20486;-58
2023/10/19 12:44:49;;;;;;;10.70;2.85;;;;;;;;;;5112585;27;20055;-57
2023/10/19 12:47:17;;;;;;;8.15;3.03;;;;;;;;;;5102011;27;20055;-60
2023/10/19 12:49:48;;;;;;;14.35;3.10;;;;;;;;;;5104534;27;20059;-60
2023/10/19 12:52:14;;;;;;;16.38;3.70;;;;;;;;;;5121884;27;20047;-60
2023/10/19 12:54:44;;;;;;;9.18;2.83;;;;;;;;;;5125931;27;20055;-58
2023/10/19 12:57:10;;;;;;;12.43;2.97;;;;;;;;;;5125579;27;20689;-58
2023/10/19 12:59:39;;;;;;;13.60;3.08;;;;;;;;;;5118582;27;20087;-58
2023/10/19 13:02:09;;;;;;;15.73;3.50;;;;;;;;;;5118771;27;20056;-57
2023/10/19 13:04:36;;;;;;;9.82;3.17;;;;;;;;;;5119892;27;20095;-58
2023/10/19 13:07:03;;;;;;;10.98;2.75;;;;;;;;;;5124815;27;20047;-58
2023/10/19 13:09:32;;;;;;;10.63;2.40;;;;;;;;;;5108865;27;20095;-59
2023/10/19 13:11:59;;;;;;;13.80;3.72;;;;;;;;;;5120401;27;20058;-57
2023/10/19 13:14:26;;;;;;;11.82;2.80;;;;;;;;;;5124907;27;20057;-59
2023/10/19 13:16:54;;;;;;;9.13;2.85;;;;;;;;;;5127450;27;21791;-60
2023/10/19 13:19:25;;;;;;;12.80;3.47;;;;;;;;;;5125820;27;20343;-60
2023/10/19 13:21:51;;;;;;;12.63;2.92;;;;;;;;;;5125044;27;20079;-59
2023/10/19 13:24:20;;;;;;;13.10;3.65;;;;;;;;;;5111956;27;20048;-58
2023/10/19 13:26:47;;;;;;;11.52;3.22;;;;;;;;;;5110708;27;20067;-59
2023/10/19 13:29:17;;;;;;;14.15;4.47;;;;;;;;;;5143698;27;20059;-59
2023/10/19 13:31:49;;;;;;;13.23;3.92;;;;;;;;;;5124538;27;20131;-59
2023/10/19 13:34:16;;;;;;;9.38;3.00;;;;;;;;;;5125590;27;20047;-59
2023/10/19 13:36:44;;;;;;;13.20;3.50;;;;;;;;;;5124723;27;20051;-60
2023/10/19 13:39:16;;;;;;;14.40;4.00;;;;;;;;;;5125035;27;20596;-60
2023/10/19 13:41:43;;;;;;;25.63;4.68;;;;;;;;;;5122568;27;20124;-59
2023/10/19 13:44:09;;;;;;;15.60;3.90;;;;;;;;;;5124678;27;20627;-60
2023/10/19 13:46:37;;;;;;;15.95;4.13;;;;;;;;;;5121438;27;20487;-59
2023/10/19 13:49:05;;;;;;;11.27;4.20;;;;;;;;;;5104818;27;20056;-59
2023/10/19 13:51:33;;;;;;;10.82;4.40;;;;;;;;;;5126060;27;20141;-60
2023/10/19 13:53:59;;;;;;;11.32;4.22;;;;;;;;;;5104854;27;20088;-57
2023/10/19 13:56:26;;;;;;;10.57;4.18;;;;;;;;;;5126968;27;20058;-58
2023/10/19 13:58:52;;;;;;;18.05;4.40;;;;;;;;;;5114702;27;20068;-59
2023/10/19 14:01:21;;;;;;;10.38;3.70;;;;;;;;;;5113690;27;20542;-59
2023/10/19 14:03:48;;;;;;;17.08;4.13;;;;;;;;;;5124305;27;20127;-60
2023/10/19 14:06:15;;;;;;;15.65;4.68;;;;;;;;;;5110517;27;20073;-59
2023/10/19 14:08:41;;;;;;;15.27;4.45;;;;;;;;;;5120849;27;20047;-59
2023/10/19 14:11:08;;;;;;;13.93;3.85;;;;;;;;;;5120041;27;20158;-59
2023/10/19 14:13:40;;;;;;;14.95;4.05;;;;;;;;;;5103479;27;20572;-58
2023/10/19 14:16:07;;;;;;;11.45;3.83;;;;;;;;;;5135423;27;20553;-54
2023/10/19 14:18:35;;;;;;;10.73;3.83;;;;;;;;;;5135429;27;20134;-60
2023/10/19 14:21:10;;;;;;;14.32;4.53;;;;;;;;;;5134593;27;20649;-59
2023/10/19 14:23:39;;;;;;;18.05;4.97;;;;;;;;;;5143029;27;20051;-57
2023/10/19 14:26:05;;;;;;;13.90;3.72;;;;;;;;;;5124343;27;20142;-60
2023/10/19 14:28:32;;;;;;;8.70;3.85;;;;;;;;;;5108206;27;20613;-60
2023/10/19 14:31:00;;;;;;;9.25;3.30;;;;;;;;;;5116531;27;20107;-59
2023/10/19 14:33:26;;;;;;;15.02;4.32;;;;;;;;;;5137076;27;20051;-60
2023/10/19 14:35:53;;;;;;;11.95;4.47;;;;;;;;;;5142943;27;20074;-57
2023/10/19 14:38:20;;;;;;;11.48;4.47;;;;;;;;;;5110540;27;20518;-60
2023/10/19 14:40:48;;;;;;;14.48;3.35;;;;;;;;;;5103821;27;20067;-59
2023/10/19 14:43:14;;;;;;;15.93;4.72;;;;;;;;;;5105356;27;20060;-58
2023/10/19 14:45:42;;;;;;;14.05;4.22;;;;;;;;;;5124394;27;20048;-59
2023/10/19 14:48:10;;;;;;;15.15;4.70;;;;;;;;;;5120669;27;20052;-60